Main page
METAR-TAF:

METAR-TAF

Airports :

Churchill, Manitoba, Canada

Churchill Airport

latitude: 58-44N, longitude: 094-04W, elevation: 28 m

Current weather observation

The report was made 29 minutes ago, at 01:00 UTC
Wind 8 kt from the South
Temperature -12°C
Humidity 72%
Pressure 1031 hPa
Visibility: 24.1 km
Few clouds at a height of 800 ft
Broken clouds at a height of 23000 ft

METAR: CYYQ 290100Z 17008KT 15SM FEW008 BKN230 M12/M16 A3044 RMK ST2CI5 SLP313

Time: 20:29 (01:29 UTC)

Forecast

The report was made 1 hour and 50 minutes ago, at 23:39 UTC
Forecast valid from 29 at 00 UTC to 29 at 24 UTC
Wind 8 kt from the South
Visibility: 10 km
Broken clouds at a height of 22000 ft
From 29 at 0600 UTC
Wind 8 kt from the South
Visibility: 10 km
Scattered clouds at a height of 800 ft
Broken clouds at a height of 22000 ft

TAF: CYYQ 282339Z 2900/2924 18008KT P6SM BKN220 FM290600 17008KT P6SM SCT008 BKN220 RMK NXT FCST BY 290600Z

Weather observations and forecasts of more than 4000 airports (METAR and TAF reports).

The available stations are represented by yellow and red dots on the map.

Hover mouse over dot to see the name of the station.

Then click to see weather observations and forecasts.

To change the map : click on the green buttons with a black cross to zoom in, on the green button with a dash to zoom out, or on the green arrows for adjacent maps.


METAR-TAF: